createdAt,value
2018-02-24T00:00:54.535Z,95122.08
2018-02-24T00:03:22.051Z,95118.31
2018-02-24T00:05:49.740Z,95121.22
2018-02-24T00:08:17.619Z,95134.67
2018-02-24T00:10:45.145Z,95131.49
2018-02-24T00:13:12.682Z,95134.97
2018-02-24T00:15:40.194Z,95123.61
2018-02-24T00:18:07.726Z,95128.95
2018-02-24T00:20:35.260Z,95128.89
2018-02-24T00:23:02.783Z,95118.44
2018-02-24T00:25:30.311Z,95111.13
2018-02-24T00:27:57.852Z,95121.38
2018-02-24T00:30:25.386Z,95115.05
2018-02-24T00:32:52.894Z,95111.72
2018-02-24T00:35:20.408Z,95113.30
2018-02-24T00:37:47.923Z,95104.22
2018-02-24T00:40:16.069Z,95099.16
2018-02-24T00:42:43.602Z,95113.06
2018-02-24T00:45:11.123Z,95103.03
2018-02-24T00:47:38.625Z,95095.61
2018-02-24T00:50:06.177Z,95097.69
2018-02-24T00:52:33.710Z,95107.98
2018-02-24T00:55:01.242Z,95085.40
2018-02-24T00:57:28.746Z,95074.03
2018-02-24T00:59:56.246Z,95064.77
2018-02-24T01:02:23.747Z,95058.78
2018-02-24T01:04:51.272Z,95066.08
2018-02-24T01:07:18.812Z,95058.91
2018-02-24T01:09:46.308Z,95051.42
2018-02-24T01:12:13.822Z,95060.19
2018-02-24T01:14:41.333Z,95050.87
2018-02-24T01:17:08.843Z,95067.09
2018-02-24T01:19:36.353Z,95051.81
2018-02-24T01:22:03.916Z,95043.14
2018-02-24T01:24:31.413Z,95028.06
2018-02-24T01:26:58.977Z,95025.78
2018-02-24T01:29:26.505Z,95021.93
2018-02-24T01:31:54.053Z,95034.83
2018-02-24T01:34:21.571Z,95028.44
2018-02-24T01:36:49.104Z,95031.28
2018-02-24T01:39:16.608Z,95026.91
2018-02-24T01:41:44.104Z,95028.06
2018-02-24T01:44:11.624Z,95013.95
2018-02-24T01:46:39.252Z,95016.45
2018-02-24T01:49:06.797Z,95001.40
2018-02-24T01:51:34.361Z,95013.02
2018-02-24T01:54:01.898Z,95016.55
2018-02-24T01:56:29.454Z,95017.59
2018-02-24T01:58:57.037Z,95010.17
2018-02-24T02:01:24.622Z,95012.36
2018-02-24T02:03:52.144Z,95012.36
2018-02-24T02:06:19.676Z,95011.97
2018-02-24T02:08:47.180Z,95005.34
2018-02-24T02:11:14.685Z,95007.63
2018-02-24T02:13:42.231Z,95004.88
2018-02-24T02:16:09.746Z,95007.08
2018-02-24T02:18:37.253Z,95010.41
2018-02-24T02:21:04.791Z,95003.05
2018-02-24T02:23:32.314Z,94996.33
2018-02-24T02:25:59.856Z,94997.67
2018-02-24T02:28:27.380Z,94986.85
2018-02-24T02:30:54.939Z,94980.64
2018-02-24T02:33:22.449Z,94979.55
2018-02-24T02:35:49.955Z,94978.36
2018-02-24T02:38:17.459Z,94971.78
2018-02-24T02:40:44.986Z,94964.36
2018-02-24T02:43:12.516Z,94966.09
2018-02-24T02:45:40.029Z,94957.89
2018-02-24T02:48:07.554Z,94952.02
2018-02-24T02:50:35.080Z,94960.27
2018-02-24T02:53:02.585Z,94957.63
2018-02-24T02:55:30.121Z,94949.36
2018-02-24T02:57:57.621Z,94934.91
2018-02-24T03:00:25.255Z,94922.77
2018-02-24T03:02:52.772Z,94935.47
2018-02-24T03:05:20.267Z,94944.62
2018-02-24T03:07:47.789Z,94940.73
2018-02-24T03:10:15.362Z,94942.48
2018-02-24T03:12:42.897Z,94931.92
2018-02-24T03:15:10.428Z,94940.69
2018-02-24T03:17:37.950Z,94919.83
2018-02-24T03:20:05.507Z,94937.20
2018-02-24T03:22:33.041Z,94926.59
2018-02-24T03:25:00.652Z,94943.38
2018-02-24T03:27:28.175Z,94932.83
2018-02-24T03:29:55.749Z,94929.35
2018-02-24T03:32:23.266Z,94919.67
2018-02-24T03:34:50.798Z,94923.52
2018-02-24T03:37:18.330Z,94922.76
2018-02-24T03:39:45.856Z,94926.25
2018-02-24T03:42:13.393Z,94921.42
2018-02-24T03:44:40.921Z,94914.94
2018-02-24T03:47:08.451Z,94916.89
2018-02-24T03:49:35.994Z,94908.56
2018-02-24T03:52:03.509Z,94917.48
2018-02-24T03:54:31.038Z,94912.96
2018-02-24T03:56:58.580Z,94921.21
2018-02-24T03:59:26.105Z,94900.45
2018-02-24T04:01:53.647Z,94905.08
2018-02-24T04:04:21.373Z,94911.74
2018-02-24T04:06:48.903Z,94895.86
2018-02-24T04:09:16.428Z,94899.86
2018-02-24T04:11:43.947Z,94905.39
2018-02-24T04:14:11.470Z,94904.33
2018-02-24T04:16:38.995Z,94902.25
2018-02-24T04:19:06.511Z,94901.59
2018-02-24T04:21:34.041Z,94907.71
2018-02-24T04:24:01.580Z,94910.22
2018-02-24T04:26:29.106Z,94903.68
2018-02-24T04:28:56.723Z,94900.30
2018-02-24T04:31:24.308Z,94902.70
2018-02-24T04:33:52.086Z,94897.91
2018-02-24T04:36:19.624Z,94886.71
2018-02-24T04:38:47.205Z,94897.81
2018-02-24T04:41:14.733Z,94892.84
2018-02-24T04:43:42.283Z,94902.64
2018-02-24T04:46:09.902Z,94897.77
2018-02-24T04:48:37.441Z,94898.16
2018-02-24T04:51:04.985Z,94888.91
2018-02-24T04:53:32.829Z,94888.41
2018-02-24T04:56:00.361Z,94868.73
2018-02-24T04:58:27.861Z,94879.34
2018-02-24T05:00:55.383Z,94876.20
2018-02-24T05:03:22.898Z,94878.25
2018-02-24T05:05:50.414Z,94884.76
2018-02-24T05:08:17.918Z,94881.34
2018-02-24T05:10:45.481Z,94879.38
2018-02-24T05:13:13.023Z,94873.45
2018-02-24T05:15:40.546Z,94873.36
2018-02-24T05:18:08.076Z,94852.05
2018-02-24T05:20:35.604Z,94872.37
2018-02-24T05:23:03.301Z,94868.03
2018-02-24T05:25:30.920Z,94879.39
2018-02-24T05:27:58.446Z,94876.55
2018-02-24T05:30:26.008Z,94882.28
2018-02-24T05:32:53.550Z,94885.27
2018-02-24T05:35:21.067Z,94896.53
2018-02-24T05:37:48.604Z,94893.84
2018-02-24T05:40:16.147Z,94894.54
2018-02-24T05:42:43.689Z,94889.81
2018-02-24T05:45:11.206Z,94895.98
2018-02-24T05:47:38.746Z,94889.80
2018-02-24T05:50:06.277Z,94895.09
2018-02-24T05:52:33.847Z,94900.87
2018-02-24T05:55:01.367Z,94901.30
2018-02-24T05:57:28.874Z,94902.84
2018-02-24T05:59:56.388Z,94900.41
2018-02-24T06:02:23.936Z,94902.02
2018-02-24T06:04:51.476Z,94905.64
2018-02-24T06:07:19.168Z,94885.74
2018-02-24T06:09:46.829Z,94900.05
2018-02-24T06:12:14.338Z,94891.70
2018-02-24T06:14:41.850Z,94887.12
2018-02-24T06:17:09.357Z,94882.45
2018-02-24T06:19:36.883Z,94892.05
2018-02-24T06:22:04.431Z,94897.00
2018-02-24T06:24:32.828Z,94886.46
2018-02-24T06:27:01.037Z,94884.48
2018-02-24T06:29:28.541Z,94901.77
2018-02-24T06:31:56.885Z,94874.86
2018-02-24T06:34:25.174Z,94866.69
2018-02-24T06:36:52.698Z,94876.02
2018-02-24T06:39:20.246Z,94866.70
2018-02-24T06:41:47.835Z,94862.98
2018-02-24T06:44:15.416Z,94829.77
2018-02-24T06:46:42.977Z,94863.25
2018-02-24T06:49:11.266Z,94861.00
2018-02-24T06:51:38.780Z,94860.23
2018-02-24T06:54:06.293Z,94857.52
2018-02-24T06:56:34.134Z,94854.49
2018-02-24T06:59:03.832Z,94855.88
2018-02-24T07:01:31.396Z,94854.11
2018-02-24T07:03:58.932Z,94847.52
2018-02-24T07:06:26.467Z,94853.19
2018-02-24T07:08:54.029Z,94843.27
2018-02-24T07:11:21.545Z,94835.39
2018-02-24T07:13:49.078Z,94853.75
2018-02-24T07:16:16.661Z,94846.02
2018-02-24T07:18:44.230Z,94842.63
2018-02-24T07:21:11.780Z,94849.33
2018-02-24T07:23:39.356Z,94850.40
2018-02-24T07:26:06.869Z,94835.83
2018-02-24T07:28:34.390Z,94834.77
2018-02-24T07:31:01.949Z,94840.91
2018-02-24T07:33:30.227Z,94839.69
2018-02-24T07:35:57.738Z,94831.27
2018-02-24T07:38:25.254Z,94824.94
2018-02-24T07:40:52.767Z,94826.95
2018-02-24T07:43:20.293Z,94829.50
2018-02-24T07:45:48.434Z,94838.47
2018-02-24T07:48:16.001Z,94836.90
2018-02-24T07:50:43.560Z,94838.91
2018-02-24T07:53:11.083Z,94837.86
2018-02-24T07:55:38.765Z,94848.73
2018-02-24T07:58:06.290Z,94844.05
2018-02-24T08:00:33.818Z,94850.23
2018-02-24T08:03:01.338Z,94833.60
2018-02-24T08:05:28.891Z,94831.31
2018-02-24T08:07:56.414Z,94842.02
2018-02-24T08:10:23.948Z,94839.09
2018-02-24T08:12:51.494Z,94845.20
2018-02-24T08:15:19.020Z,94852.15
2018-02-24T08:17:46.640Z,94846.33
2018-02-24T08:20:14.177Z,94848.89
2018-02-24T08:22:41.704Z,94842.06
2018-02-24T08:25:09.291Z,94840.50
2018-02-24T08:27:38.047Z,94833.06
2018-02-24T08:30:07.349Z,94839.65
2018-02-24T08:32:34.932Z,94837.05
2018-02-24T08:35:02.523Z,94852.14
2018-02-24T08:37:30.122Z,94849.02
2018-02-24T08:39:57.717Z,94849.75
2018-02-24T08:42:25.250Z,94842.38
2018-02-24T08:44:52.829Z,94842.30
2018-02-24T08:47:20.434Z,94842.66
2018-02-24T08:49:47.940Z,94839.45
2018-02-24T08:52:15.463Z,94839.86
2018-02-24T08:54:42.996Z,94837.59
2018-02-24T08:57:10.557Z,94835.57
2018-02-24T08:59:38.275Z,94846.59
2018-02-24T09:02:05.885Z,94836.08
2018-02-24T09:04:33.452Z,94830.50
2018-02-24T09:07:01.000Z,94836.66
2018-02-24T09:09:28.648Z,94816.23
2018-02-24T09:11:56.222Z,94838.61
2018-02-24T09:14:23.856Z,94836.69
2018-02-24T09:16:51.433Z,94843.31
2018-02-24T09:19:18.994Z,94840.02
2018-02-24T09:21:46.900Z,94844.80
2018-02-24T09:24:14.448Z,94840.80
2018-02-24T09:26:42.015Z,94853.22
2018-02-24T09:29:09.650Z,94851.79
2018-02-24T09:31:37.270Z,94845.85
2018-02-24T09:34:04.901Z,94848.31
2018-02-24T09:36:32.652Z,94848.08
2018-02-24T09:39:00.181Z,94847.94
2018-02-24T09:41:27.702Z,94840.51
2018-02-24T09:43:55.348Z,94850.75
2018-02-24T09:46:22.910Z,94850.27
2018-02-24T09:48:50.514Z,94843.98
2018-02-24T09:51:18.094Z,94845.95
2018-02-24T09:53:45.662Z,94841.27
2018-02-24T09:56:13.257Z,94838.48
2018-02-24T09:58:40.823Z,94833.28
2018-02-24T10:01:08.521Z,94816.23
2018-02-24T10:03:36.141Z,94832.85
2018-02-24T10:06:03.758Z,94833.37
2018-02-24T10:08:31.348Z,94826.03
2018-02-24T10:10:58.941Z,94821.46
2018-02-24T10:13:26.549Z,94829.66
2018-02-24T10:15:54.061Z,94828.43
2018-02-24T10:18:21.676Z,94821.00
2018-02-24T10:20:49.225Z,94823.70
2018-02-24T10:23:16.826Z,94820.34
2018-02-24T10:25:44.389Z,94813.56
2018-02-24T10:28:11.995Z,94817.28
2018-02-24T10:30:39.607Z,94806.74
2018-02-24T10:33:07.188Z,94800.46
2018-02-24T10:35:34.707Z,94806.06
2018-02-24T10:38:02.335Z,94803.11
2018-02-24T10:40:29.945Z,94804.74
2018-02-24T10:42:57.574Z,94804.55
2018-02-24T10:45:25.145Z,94803.93
2018-02-24T10:47:52.823Z,94803.95
2018-02-24T10:50:20.406Z,94805.59
2018-02-24T10:52:47.935Z,94803.48
2018-02-24T10:55:15.576Z,94809.30
2018-02-24T10:57:43.137Z,94799.32
2018-02-24T11:00:10.765Z,94797.86
2018-02-24T11:02:38.425Z,94800.12
2018-02-24T11:05:06.276Z,94803.43
2018-02-24T11:07:33.801Z,94783.93
2018-02-24T11:10:01.394Z,94788.07
2018-02-24T11:12:28.986Z,94781.28
2018-02-24T11:14:56.578Z,94777.27
2018-02-24T11:17:24.243Z,94782.02
2018-02-24T11:19:51.777Z,94772.66
2018-02-24T11:22:19.326Z,94770.42
2018-02-24T11:24:47.023Z,94774.83
2018-02-24T11:27:14.601Z,94771.27
2018-02-24T11:29:42.179Z,94768.75
2018-02-24T11:32:09.715Z,94755.38
2018-02-24T11:34:37.289Z,94764.93
2018-02-24T11:37:04.872Z,94760.06
2018-02-24T11:39:37.941Z,94749.34
2018-02-24T11:42:05.536Z,94761.70
2018-02-24T11:44:33.173Z,94755.20
2018-02-24T11:47:00.860Z,94750.33
2018-02-24T11:49:28.526Z,94742.58
2018-02-24T11:51:56.191Z,94737.89
2018-02-24T11:54:23.804Z,94740.14
2018-02-24T11:56:51.433Z,94731.91
2018-02-24T11:59:19.013Z,94726.66
2018-02-24T12:01:46.575Z,94728.89
2018-02-24T12:04:14.181Z,94727.27
2018-02-24T12:06:41.773Z,94723.01
2018-02-24T12:09:09.320Z,94725.15
2018-02-24T12:11:36.889Z,94726.50
2018-02-24T12:14:04.541Z,94720.58
2018-02-24T12:16:32.175Z,94712.66
2018-02-24T12:18:59.826Z,94711.13
2018-02-24T12:21:27.386Z,94712.91
2018-02-24T12:23:54.924Z,94704.91
2018-02-24T12:26:22.547Z,94707.08
2018-02-24T12:28:50.178Z,94707.76
2018-02-24T12:31:17.816Z,94705.48
2018-02-24T12:33:45.431Z,94690.31
2018-02-24T12:36:12.962Z,94704.75
2018-02-24T12:38:40.481Z,94699.11
2018-02-24T12:41:08.124Z,94698.27
2018-02-24T12:43:35.705Z,94688.92
2018-02-24T12:46:03.268Z,94693.65
2018-02-24T12:48:30.832Z,94685.68
2018-02-24T12:50:58.388Z,94681.23
2018-02-24T12:53:25.896Z,94686.97
2018-02-24T12:55:53.706Z,94677.09
2018-02-24T12:58:21.261Z,94679.14
2018-02-24T13:00:48.918Z,94677.03
2018-02-24T13:03:16.476Z,94675.77
2018-02-24T13:05:43.989Z,94670.70
2018-02-24T13:08:11.506Z,94667.91
2018-02-24T13:10:39.027Z,94673.85
2018-02-24T13:13:06.635Z,94663.77
2018-02-24T13:15:34.488Z,94663.66
2018-02-24T13:18:02.038Z,94663.44
2018-02-24T13:20:29.569Z,94661.35
2018-02-24T13:22:57.161Z,94666.00
2018-02-24T13:25:24.754Z,94656.84
2018-02-24T13:27:52.230Z,94659.27
2018-02-24T13:30:19.815Z,94659.38
2018-02-24T13:32:47.355Z,94652.17
2018-02-24T13:35:14.877Z,94654.36
2018-02-24T13:37:42.399Z,94649.58
2018-02-24T13:40:09.982Z,94645.06
2018-02-24T13:42:37.527Z,94657.19
2018-02-24T13:45:05.042Z,94641.17
2018-02-24T13:47:32.577Z,94650.25
2018-02-24T13:50:00.103Z,94652.09
2018-02-24T13:52:27.648Z,94664.14
2018-02-24T13:54:55.194Z,94643.81
2018-02-24T13:57:22.736Z,94644.16
2018-02-24T13:59:50.307Z,94638.04
2018-02-24T14:02:17.856Z,94641.76
2018-02-24T14:04:45.469Z,94639.98
2018-02-24T14:07:13.016Z,94639.19
2018-02-24T14:09:40.564Z,94637.48
2018-02-24T14:12:08.087Z,94636.70
2018-02-24T14:14:35.667Z,94642.98
2018-02-24T14:17:03.205Z,94635.27
2018-02-24T14:19:30.797Z,94636.70
2018-02-24T14:21:58.341Z,94627.20
2018-02-24T14:24:25.861Z,94626.64
2018-02-24T14:26:53.370Z,94635.75
2018-02-24T14:29:21.514Z,94629.63
2018-02-24T14:31:49.247Z,94634.41
2018-02-24T14:34:16.804Z,94629.98
2018-02-24T14:36:44.367Z,94634.48
2018-02-24T14:39:12.057Z,94629.44
2018-02-24T14:41:39.606Z,94628.66
2018-02-24T14:44:07.153Z,94634.83
2018-02-24T14:46:34.680Z,94628.28
2018-02-24T14:49:02.214Z,94637.61
2018-02-24T14:51:29.775Z,94627.87
2018-02-24T14:53:57.317Z,94645.06
2018-02-24T14:56:24.909Z,94644.74
2018-02-24T14:58:52.652Z,94641.19
2018-02-24T15:01:20.321Z,94639.97
2018-02-24T15:03:47.918Z,94638.13
2018-02-24T15:06:15.527Z,94639.39
2018-02-24T15:08:43.138Z,94637.66
2018-02-24T15:11:10.994Z,94642.17
2018-02-24T15:13:38.650Z,94644.55
2018-02-24T15:16:06.215Z,94652.74
2018-02-24T15:18:33.778Z,94652.77
2018-02-24T15:21:01.355Z,94658.39
2018-02-24T15:23:28.997Z,94657.66
2018-02-24T15:25:56.796Z,94658.70
2018-02-24T15:28:24.437Z,94660.25
2018-02-24T15:30:52.000Z,94656.69
2018-02-24T15:33:19.514Z,94661.89
2018-02-24T15:35:47.782Z,94661.06
2018-02-24T15:38:16.259Z,94667.03
2018-02-24T15:40:43.793Z,94663.61
2018-02-24T15:43:11.349Z,94668.78
2018-02-24T15:45:38.885Z,94673.40
2018-02-24T15:48:07.148Z,94671.72
2018-02-24T15:50:34.664Z,94674.77
2018-02-24T15:53:03.070Z,94676.87
2018-02-24T15:55:30.625Z,94678.52
2018-02-24T15:57:58.149Z,94675.91
2018-02-24T16:00:25.714Z,94690.39
2018-02-24T16:02:53.347Z,94682.32
2018-02-24T16:05:20.865Z,94686.59
2018-02-24T16:07:48.461Z,94693.12
2018-02-24T16:10:16.085Z,94699.83
2018-02-24T16:12:43.609Z,94693.69
2018-02-24T16:15:11.161Z,94689.13
2018-02-24T16:17:38.941Z,94701.16
2018-02-24T16:20:07.142Z,94707.30
2018-02-24T16:22:34.717Z,94715.64
2018-02-24T16:25:02.290Z,94703.00
2018-02-24T16:27:29.806Z,94696.00
2018-02-24T16:29:57.863Z,94712.70
2018-02-24T16:32:25.442Z,94708.87
2018-02-24T16:34:52.988Z,94714.34
2018-02-24T16:37:21.493Z,94724.65
2018-02-24T16:39:49.017Z,94724.94
2018-02-24T16:42:16.563Z,94725.22
2018-02-24T16:44:44.393Z,94724.19
2018-02-24T16:47:11.978Z,94714.22
2018-02-24T16:49:39.638Z,94718.59
2018-02-24T16:52:07.171Z,94719.81
2018-02-24T16:54:34.714Z,94727.84
2018-02-24T16:57:02.286Z,94732.08
2018-02-24T16:59:29.835Z,94733.59
2018-02-24T17:01:57.403Z,94736.27
2018-02-24T17:04:24.925Z,94738.56
2018-02-24T17:06:52.443Z,94737.46
2018-02-24T17:09:19.971Z,94734.57
2018-02-24T17:11:47.482Z,94736.95
2018-02-24T17:14:15.018Z,94736.36
2018-02-24T17:16:42.543Z,94731.18
2018-02-24T17:19:10.077Z,94741.80
2018-02-24T17:21:37.592Z,94739.38
2018-02-24T17:24:05.516Z,94742.43
2018-02-24T17:26:33.090Z,94741.51
2018-02-24T17:29:00.629Z,94735.89
2018-02-24T17:31:28.193Z,94738.42
2018-02-24T17:33:55.946Z,94738.38
2018-02-24T17:36:23.461Z,94743.20
2018-02-24T17:38:50.973Z,94744.27
2018-02-24T17:41:18.547Z,94752.55
2018-02-24T17:43:46.073Z,94751.35
2018-02-24T17:46:13.585Z,94759.20
2018-02-24T17:48:41.365Z,94762.48
2018-02-24T17:51:09.158Z,94760.69
2018-02-24T17:53:36.683Z,94762.91
2018-02-24T17:56:04.253Z,94763.42
2018-02-24T17:58:31.780Z,94767.37
2018-02-24T18:00:59.349Z,94769.11
2018-02-24T18:03:27.650Z,94764.44
2018-02-24T18:05:55.164Z,94773.66
2018-02-24T18:08:22.820Z,94778.02
2018-02-24T18:10:50.602Z,94773.09
2018-02-24T18:13:18.450Z,94774.59
2018-02-24T18:15:45.962Z,94766.98
2018-02-24T18:18:13.491Z,94757.80
2018-02-24T18:20:41.062Z,94779.14
2018-02-24T18:23:08.583Z,94789.27
2018-02-24T18:25:36.117Z,94782.30
2018-02-24T18:28:03.643Z,94800.45
2018-02-24T18:30:31.187Z,94794.68
2018-02-24T18:32:58.697Z,94776.02
2018-02-24T18:35:26.233Z,94797.83
2018-02-24T18:37:54.516Z,94796.75
2018-02-24T18:40:22.409Z,94810.05
2018-02-24T18:42:50.183Z,94813.25
2018-02-24T18:45:18.911Z,94800.97
2018-02-24T18:47:46.426Z,94817.19
2018-02-24T18:50:14.400Z,94821.78
2018-02-24T18:52:41.925Z,94820.98
2018-02-24T18:55:09.602Z,94823.91
2018-02-24T18:57:37.201Z,94825.81
2018-02-24T19:00:07.525Z,94826.19
2018-02-24T19:02:35.028Z,94827.53
2018-02-24T19:05:02.562Z,94821.97
2018-02-24T19:07:30.107Z,94819.89
2018-02-24T19:09:57.922Z,94833.21
2018-02-24T19:12:25.614Z,94829.39
2018-02-24T19:14:53.219Z,94830.78
2018-02-24T19:17:20.880Z,94836.11
2018-02-24T19:19:48.401Z,94833.03
2018-02-24T19:22:15.918Z,94835.38
2018-02-24T19:24:43.572Z,94832.84
2018-02-24T19:27:11.187Z,94837.64
2018-02-24T19:29:38.763Z,94844.81
2018-02-24T19:32:07.314Z,94844.05
2018-02-24T19:34:34.829Z,94844.21
2018-02-24T19:37:03.182Z,94846.50
2018-02-24T19:39:31.008Z,94839.55
2018-02-24T19:41:58.538Z,94852.62
2018-02-24T19:44:26.078Z,94846.80
2018-02-24T19:46:53.640Z,94851.30
2018-02-24T19:49:21.517Z,94855.63
2018-02-24T19:51:49.086Z,94847.38
2018-02-24T19:54:16.615Z,94857.13
2018-02-24T19:56:44.134Z,94860.38
2018-02-24T19:59:12.585Z,94859.88
2018-02-24T20:01:40.153Z,94858.87
2018-02-24T20:04:08.428Z,94865.51
2018-02-24T20:06:35.957Z,94873.03
2018-02-24T20:09:03.728Z,94865.41
2018-02-24T20:11:31.240Z,94862.86
2018-02-24T20:13:58.821Z,94865.66
2018-02-24T20:16:26.364Z,94868.64
2018-02-24T20:18:54.707Z,94875.81
2018-02-24T20:21:22.241Z,94873.83
2018-02-24T20:23:49.773Z,94874.17
2018-02-24T20:26:17.302Z,94881.84
2018-02-24T20:28:44.914Z,94880.77
2018-02-24T20:31:12.507Z,94883.18
2018-02-24T20:33:40.031Z,94878.62
2018-02-24T20:36:07.563Z,94890.64
2018-02-24T20:38:35.559Z,94898.81
2018-02-24T20:41:03.167Z,94901.07
2018-02-24T20:43:31.515Z,94899.28
2018-02-24T20:45:59.261Z,94900.22
2018-02-24T20:48:26.844Z,94900.66
2018-02-24T20:50:54.375Z,94886.13
2018-02-24T20:53:21.897Z,94904.61
2018-02-24T20:55:49.651Z,94903.65
2018-02-24T20:58:17.193Z,94906.14
2018-02-24T21:00:44.739Z,94908.08
2018-02-24T21:03:12.307Z,94898.92
2018-02-24T21:05:39.841Z,94912.35
2018-02-24T21:08:07.434Z,94912.45
2018-02-24T21:10:35.037Z,94916.58
2018-02-24T21:13:02.585Z,94909.90
2018-02-24T21:15:30.109Z,94928.81
2018-02-24T21:17:57.617Z,94925.77
2018-02-24T21:20:25.188Z,94931.39
2018-02-24T21:22:52.705Z,94933.77
2018-02-24T21:25:20.375Z,94935.70
2018-02-24T21:27:47.887Z,94925.80
2018-02-24T21:30:15.576Z,94944.50
2018-02-24T21:32:43.086Z,94943.89
2018-02-24T21:35:10.606Z,94932.87
2018-02-24T21:37:38.162Z,94942.61
2018-02-24T21:40:05.700Z,94945.05
2018-02-24T21:42:33.260Z,94949.73
2018-02-24T21:45:00.780Z,94951.25
2018-02-24T21:47:28.314Z,94942.03
2018-02-24T21:49:56.600Z,94957.99
2018-02-24T21:52:24.454Z,94941.45
2018-02-24T21:54:52.017Z,94955.52
2018-02-24T21:57:19.548Z,94962.78
2018-02-24T21:59:47.554Z,94966.44
2018-02-24T22:02:15.081Z,94966.77
2018-02-24T22:04:42.591Z,94971.19
2018-02-24T22:07:10.139Z,94970.73
2018-02-24T22:09:37.651Z,94974.14
2018-02-24T22:12:05.200Z,94974.93
2018-02-24T22:14:32.720Z,94985.69
2018-02-24T22:17:00.220Z,94979.62
2018-02-24T22:19:27.776Z,94988.28
2018-02-24T22:21:55.285Z,94991.70
2018-02-24T22:24:22.826Z,94994.47
2018-02-24T22:26:51.186Z,94997.78
2018-02-24T22:29:18.743Z,94992.34
2018-02-24T22:31:46.294Z,94997.95
2018-02-24T22:34:13.820Z,95013.42
2018-02-24T22:36:41.360Z,95014.87
2018-02-24T22:39:08.883Z,95005.49
2018-02-24T22:41:36.400Z,95013.06
2018-02-24T22:44:03.967Z,95017.87
2018-02-24T22:46:31.508Z,95023.89
2018-02-24T22:49:00.849Z,95030.44
2018-02-24T22:51:28.384Z,95021.30
2018-02-24T22:53:55.905Z,95023.81
2018-02-24T22:56:23.555Z,95020.52
2018-02-24T22:59:19.289Z,95025.09
2018-02-24T23:01:46.867Z,95030.06
2018-02-24T23:04:14.417Z,95026.52
2018-02-24T23:06:41.977Z,95027.22
2018-02-24T23:09:09.551Z,95028.09
2018-02-24T23:11:37.165Z,95027.69
2018-02-24T23:14:04.749Z,95025.41
2018-02-24T23:16:32.320Z,95033.39
2018-02-24T23:18:59.905Z,95035.34
2018-02-24T23:21:27.521Z,95036.47
2018-02-24T23:23:55.117Z,95043.73
2018-02-24T23:26:22.697Z,95031.26
2018-02-24T23:28:50.277Z,95036.15
2018-02-24T23:31:17.826Z,95040.65
2018-02-24T23:33:45.409Z,95035.20
2018-02-24T23:36:12.991Z,95051.53
2018-02-24T23:38:41.238Z,95049.58
2018-02-24T23:41:09.575Z,95062.20
2018-02-24T23:43:37.148Z,95059.34
2018-02-24T23:46:04.683Z,95059.82
2018-02-24T23:48:32.221Z,95060.77
2018-02-24T23:50:59.743Z,95078.92
2018-02-24T23:53:27.270Z,95059.97
2018-02-24T23:55:54.808Z,95054.75
2018-02-24T23:58:22.329Z,95058.95
